Main page
Satellite images 10-day forecastsClimateMarine weather Cyclones Lightning AirportsFAQ Newsletter About
Weather : Europe Africa North America South America Asia Australia-Oceania Others
Languages Contact

Viru-Viru, Bolivia

Viru Viru International Airport

latitude: 17-38S, longitude: 063-08W, elevation: 373 m


METAR: SLVR 041200Z 18015KT 9999 FEW080 21/09 Q1019
TAF: SLVR 041000Z 0412/0512 18010KT 9999 NSC TX31/0420Z TN22/0511Z BECMG 0414/0416 17015KT SCT027 BECMG 0423/0501 16006KT

Time: 08:18 (12:18 UTC)

Current weather observation

The report was made 18 minutes ago, at 12:00 UTC
Wind 15 kt from the South
Temperature 21°C
Humidity 46%
Pressure 1019 hPa
Visibility 10 km or more
Few clouds at a height of 8000 ft

Change units

Forecast

The report was made 2 hours and 18 minutes ago, at 10:00 UTC
Forecast valid from 04 at 12 UTC to 05 at 12 UTC
Wind 10 kt from the South
Visibility 10 km or more
Becoming
from 04 at 14 UTC to 04 at 16 UTC
Wind 15 kt from the South
Scattered clouds at a height of 2700 ft
Becoming
from 04 at 23 UTC to 05 at 01 UTC
Wind 6 kt from the South/Southeast
The information on this site is subject to a disclaimer
Weather : Europe Africa North America South America Asia Australia-Oceania Others
Satellite images 10-day forecastsClimateMarine weather Cyclones Lightning AirportsFAQ Languages Contact Newsletter About